sensor_id;sensor_type;location;lat;lon;timestamp;pressure;altitude;pressure_sealevel;temperature;humidity
77662;BME280;69666;52.136;5.424;2024-01-25T00:00:35;102809.03;;;7.28;86.44
77662;BME280;69666;52.136;5.424;2024-01-25T00:03:06;102805.97;;;7.23;86.49
77662;BME280;69666;52.136;5.424;2024-01-25T00:05:35;102804.56;;;7.19;86.50
77662;BME280;69666;52.136;5.424;2024-01-25T00:08:05;102802.31;;;7.14;86.75
77662;BME280;69666;52.136;5.424;2024-01-25T00:10:35;102811.66;;;7.10;86.65
77662;BME280;69666;52.136;5.424;2024-01-25T00:13:16;102816.44;;;7.07;86.46
77662;BME280;69666;52.136;5.424;2024-01-25T00:15:46;102823.06;;;7.03;86.60
77662;BME280;69666;52.136;5.424;2024-01-25T00:18:15;102814.91;;;6.94;86.57
77662;BME280;69666;52.136;5.424;2024-01-25T00:20:45;102810.97;;;6.89;87.06
77662;BME280;69666;52.136;5.424;2024-01-25T00:23:15;102812.66;;;6.90;87.02
77662;BME280;69666;52.136;5.424;2024-01-25T00:25:44;102811.09;;;6.87;86.97
77662;BME280;69666;52.136;5.424;2024-01-25T00:28:14;102822.38;;;6.81;86.79
77662;BME280;69666;52.136;5.424;2024-01-25T00:30:43;102818.28;;;6.77;86.97
77662;BME280;69666;52.136;5.424;2024-01-25T00:33:13;102806.47;;;6.70;87.14
77662;BME280;69666;52.136;5.424;2024-01-25T00:35:43;102815.38;;;6.71;87.23
77662;BME280;69666;52.136;5.424;2024-01-25T00:38:13;102815.78;;;6.66;87.17
77662;BME280;69666;52.136;5.424;2024-01-25T00:40:43;102821.84;;;6.58;87.44
77662;BME280;69666;52.136;5.424;2024-01-25T00:43:13;102821.00;;;6.58;87.22
77662;BME280;69666;52.136;5.424;2024-01-25T00:45:43;102822.13;;;6.55;87.33
77662;BME280;69666;52.136;5.424;2024-01-25T00:48:25;102827.91;;;6.51;87.29
77662;BME280;69666;52.136;5.424;2024-01-25T00:50:55;102835.22;;;6.49;87.35
77662;BME280;69666;52.136;5.424;2024-01-25T00:53:25;102838.88;;;6.48;87.09
77662;BME280;69666;52.136;5.424;2024-01-25T00:55:55;102831.13;;;6.45;87.15
77662;BME280;69666;52.136;5.424;2024-01-25T00:58:25;102837.75;;;6.41;87.28
77662;BME280;69666;52.136;5.424;2024-01-25T01:00:54;102840.56;;;6.39;87.30
77662;BME280;69666;52.136;5.424;2024-01-25T01:03:24;102849.00;;;6.35;87.42
77662;BME280;69666;52.136;5.424;2024-01-25T01:05:55;102849.84;;;6.35;87.49
77662;BME280;69666;52.136;5.424;2024-01-25T01:08:26;102856.59;;;6.29;87.58
77662;BME280;69666;52.136;5.424;2024-01-25T01:10:56;102849.56;;;6.28;87.49
77662;BME280;69666;52.136;5.424;2024-01-25T01:13:25;102844.47;;;6.25;87.53
77662;BME280;69666;52.136;5.424;2024-01-25T01:15:55;102853.78;;;6.21;87.50
77662;BME280;69666;52.136;5.424;2024-01-25T01:18:25;102853.22;;;6.18;87.37
77662;BME280;69666;52.136;5.424;2024-01-25T01:20:54;102850.09;;;6.13;87.54
77662;BME280;69666;52.136;5.424;2024-01-25T01:23:28;102855.72;;;6.10;87.63
77662;BME280;69666;52.136;5.424;2024-01-25T01:25:58;102864.88;;;6.07;87.51
77662;BME280;69666;52.136;5.424;2024-01-25T01:28:27;102862.47;;;6.04;87.41
77662;BME280;69666;52.136;5.424;2024-01-25T01:30:56;102860.06;;;6.01;87.62
77662;BME280;69666;52.136;5.424;2024-01-25T01:33:26;102864.72;;;5.99;87.41
77662;BME280;69666;52.136;5.424;2024-01-25T01:35:56;102872.28;;;5.94;87.65
77662;BME280;69666;52.136;5.424;2024-01-25T01:38:25;102868.06;;;5.91;87.63
77662;BME280;69666;52.136;5.424;2024-01-25T01:40:56;102870.13;;;5.88;87.37
77662;BME280;69666;52.136;5.424;2024-01-25T01:43:26;102864.31;;;5.83;87.56
77662;BME280;69666;52.136;5.424;2024-01-25T01:46:29;102869.94;;;5.80;87.68
77662;BME280;69666;52.136;5.424;2024-01-25T01:48:55;102863.16;;;5.76;87.49
77662;BME280;69666;52.136;5.424;2024-01-25T01:51:25;102877.81;;;5.72;87.58
77662;BME280;69666;52.136;5.424;2024-01-25T01:53:56;102876.25;;;5.69;87.59
77662;BME280;69666;52.136;5.424;2024-01-25T01:56:28;102866.53;;;5.68;87.48
77662;BME280;69666;52.136;5.424;2024-01-25T01:59:01;102873.25;;;5.62;87.60
77662;BME280;69666;52.136;5.424;2024-01-25T02:01:32;102878.88;;;5.59;87.62
77662;BME280;69666;52.136;5.424;2024-01-25T02:04:02;102890.81;;;5.55;87.72
77662;BME280;69666;52.136;5.424;2024-01-25T02:06:32;102883.06;;;5.52;87.53
77662;BME280;69666;52.136;5.424;2024-01-25T02:09:03;102894.00;;;5.49;87.51
77662;BME280;69666;52.136;5.424;2024-01-25T02:11:33;102893.41;;;5.46;87.63
77662;BME280;69666;52.136;5.424;2024-01-25T02:14:03;102893.56;;;5.44;87.74
77662;BME280;69666;52.136;5.424;2024-01-25T02:16:35;102897.47;;;5.40;87.80
77662;BME280;69666;52.136;5.424;2024-01-25T02:19:06;102898.56;;;5.38;87.94
77662;BME280;69666;52.136;5.424;2024-01-25T02:21:35;102907.56;;;5.37;87.84
77662;BME280;69666;52.136;5.424;2024-01-25T02:24:06;102922.88;;;5.35;87.86
77662;BME280;69666;52.136;5.424;2024-01-25T02:26:36;102922.28;;;5.31;88.09
77662;BME280;69666;52.136;5.424;2024-01-25T02:29:05;102916.09;;;5.30;88.16
77662;BME280;69666;52.136;5.424;2024-01-25T02:31:36;102920.59;;;5.30;88.42
77662;BME280;69666;52.136;5.424;2024-01-25T02:34:06;102918.91;;;5.29;88.45
77662;BME280;69666;52.136;5.424;2024-01-25T02:36:36;102918.91;;;5.29;88.41
77662;BME280;69666;52.136;5.424;2024-01-25T02:39:06;102922.69;;;5.26;88.32
77662;BME280;69666;52.136;5.424;2024-01-25T02:41:35;102929.84;;;5.26;88.46
77662;BME280;69666;52.136;5.424;2024-01-25T02:44:05;102932.53;;;5.26;88.16
77662;BME280;69666;52.136;5.424;2024-01-25T02:46:34;102933.50;;;5.25;88.16
77662;BME280;69666;52.136;5.424;2024-01-25T02:49:04;102934.59;;;5.22;88.24
77662;BME280;69666;52.136;5.424;2024-01-25T02:51:35;102930.41;;;5.20;88.23
77662;BME280;69666;52.136;5.424;2024-01-25T02:54:04;102937.69;;;5.18;88.05
77662;BME280;69666;52.136;5.424;2024-01-25T02:56:34;102936.25;;;5.14;88.09
77662;BME280;69666;52.136;5.424;2024-01-25T02:59:04;102934.81;;;5.10;87.79
77662;BME280;69666;52.136;5.424;2024-01-25T03:01:43;102945.88;;;5.05;88.02
77662;BME280;69666;52.136;5.424;2024-01-25T03:04:13;102946.25;;;5.01;87.67
77662;BME280;69666;52.136;5.424;2024-01-25T03:06:44;102940.31;;;4.97;87.71
77662;BME280;69666;52.136;5.424;2024-01-25T03:09:14;102939.00;;;4.91;87.73
77662;BME280;69666;52.136;5.424;2024-01-25T03:11:43;102933.19;;;4.86;87.74
77662;BME280;69666;52.136;5.424;2024-01-25T03:14:12;102926.41;;;4.82;87.68
77662;BME280;69666;52.136;5.424;2024-01-25T03:16:42;102933.22;;;4.75;87.61
77662;BME280;69666;52.136;5.424;2024-01-25T03:19:12;102935.41;;;4.70;87.83
77662;BME280;69666;52.136;5.424;2024-01-25T03:21:41;102932.19;;;4.67;87.64
77662;BME280;69666;52.136;5.424;2024-01-25T03:24:11;102929.88;;;4.62;87.80
77662;BME280;69666;52.136;5.424;2024-01-25T03:26:40;102938.28;;;4.35;88.92
77662;BME280;69666;52.136;5.424;2024-01-25T03:29:10;102937.19;;;4.49;87.96
77662;BME280;69666;52.136;5.424;2024-01-25T03:31:39;102941.66;;;4.48;87.73
77662;BME280;69666;52.136;5.424;2024-01-25T03:34:09;102942.03;;;4.44;87.68
77662;BME280;69666;52.136;5.424;2024-01-25T03:36:39;102946.66;;;4.42;87.58
77662;BME280;69666;52.136;5.424;2024-01-25T03:39:09;102942.06;;;4.21;88.47
77662;BME280;69666;52.136;5.424;2024-01-25T03:41:39;102935.88;;;4.32;87.83
77662;BME280;69666;52.136;5.424;2024-01-25T03:44:12;102928.09;;;4.29;87.82
77662;BME280;69666;52.136;5.424;2024-01-25T03:46:42;102931.88;;;4.26;87.94
77662;BME280;69666;52.136;5.424;2024-01-25T03:49:11;102924.09;;;4.23;87.79
77662;BME280;69666;52.136;5.424;2024-01-25T03:51:41;102917.19;;;4.21;88.28
77662;BME280;69666;52.136;5.424;2024-01-25T03:54:11;102925.31;;;4.19;88.29
77662;BME280;69666;52.136;5.424;2024-01-25T03:56:40;102927.25;;;4.17;87.99
77662;BME280;69666;52.136;5.424;2024-01-25T03:59:10;102932.88;;;4.14;88.44
77662;BME280;69666;52.136;5.424;2024-01-25T04:01:43;102933.84;;;4.13;88.18
77662;BME280;69666;52.136;5.424;2024-01-25T04:04:13;102941.84;;;4.13;88.40
77662;BME280;69666;52.136;5.424;2024-01-25T04:06:44;102935.78;;;4.11;88.37
77662;BME280;69666;52.136;5.424;2024-01-25T04:09:15;102935.91;;;4.10;88.15
77662;BME280;69666;52.136;5.424;2024-01-25T04:11:44;102935.16;;;4.08;88.04
77662;BME280;69666;52.136;5.424;2024-01-25T04:14:13;102930.06;;;4.05;88.04
77662;BME280;69666;52.136;5.424;2024-01-25T04:16:44;102933.09;;;4.00;88.04
77662;BME280;69666;52.136;5.424;2024-01-25T04:19:24;102933.22;;;3.98;87.92
77662;BME280;69666;52.136;5.424;2024-01-25T04:21:54;102924.63;;;3.95;87.81
77662;BME280;69666;52.136;5.424;2024-01-25T04:24:23;102932.13;;;3.90;88.06
77662;BME280;69666;52.136;5.424;2024-01-25T04:26:53;102931.63;;;3.85;87.99
77662;BME280;69666;52.136;5.424;2024-01-25T04:29:23;102944.13;;;3.84;87.85
77662;BME280;69666;52.136;5.424;2024-01-25T04:31:52;102934.78;;;3.79;88.09
77662;BME280;69666;52.136;5.424;2024-01-25T04:34:22;102942.03;;;3.77;88.27
77662;BME280;69666;52.136;5.424;2024-01-25T04:36:52;102944.81;;;3.75;87.99
77662;BME280;69666;52.136;5.424;2024-01-25T04:39:21;102952.09;;;3.73;88.34
77662;BME280;69666;52.136;5.424;2024-01-25T04:41:52;102944.34;;;3.70;88.29
77662;BME280;69666;52.136;5.424;2024-01-25T04:44:21;102941.78;;;3.69;88.46
77662;BME280;69666;52.136;5.424;2024-01-25T04:46:52;102941.91;;;3.67;88.49
77662;BME280;69666;52.136;5.424;2024-01-25T04:49:22;102944.56;;;3.67;88.34
77662;BME280;69666;52.136;5.424;2024-01-25T04:51:52;102937.66;;;3.64;88.51
77662;BME280;69666;52.136;5.424;2024-01-25T04:54:21;102944.94;;;3.62;88.43
77662;BME280;69666;52.136;5.424;2024-01-25T04:56:58;102941.56;;;3.60;88.51
77662;BME280;69666;52.136;5.424;2024-01-25T04:59:36;102939.84;;;3.59;88.20
77662;BME280;69666;52.136;5.424;2024-01-25T05:02:06;102939.25;;;3.56;88.10
77662;BME280;69666;52.136;5.424;2024-01-25T05:04:36;102943.00;;;3.53;88.32
77662;BME280;69666;52.136;5.424;2024-01-25T05:07:10;102940.56;;;3.50;88.17
77662;BME280;69666;52.136;5.424;2024-01-25T05:09:40;102959.44;;;3.47;88.25
77662;BME280;69666;52.136;5.424;2024-01-25T05:12:09;102955.09;;;3.46;88.32
77662;BME280;69666;52.136;5.424;2024-01-25T05:14:39;102949.97;;;3.43;88.25
77662;BME280;69666;52.136;5.424;2024-01-25T05:17:08;102946.81;;;3.38;88.45
77662;BME280;69666;52.136;5.424;2024-01-25T05:19:37;102952.16;;;3.38;88.43
77662;BME280;69666;52.136;5.424;2024-01-25T05:22:07;102953.13;;;3.37;88.43
77662;BME280;69666;52.136;5.424;2024-01-25T05:24:37;102956.00;;;3.34;88.48
77662;BME280;69666;52.136;5.424;2024-01-25T05:27:06;102953.56;;;3.31;88.57
77662;BME280;69666;52.136;5.424;2024-01-25T05:29:39;102954.53;;;3.30;88.53
77662;BME280;69666;52.136;5.424;2024-01-25T05:32:09;102952.84;;;3.29;88.58
77662;BME280;69666;52.136;5.424;2024-01-25T05:34:38;102953.91;;;3.26;88.53
77662;BME280;69666;52.136;5.424;2024-01-25T05:37:08;102961.78;;;3.28;88.36
77662;BME280;69666;52.136;5.424;2024-01-25T05:39:37;102967.34;;;3.25;88.50
77662;BME280;69666;52.136;5.424;2024-01-25T05:42:07;102969.28;;;3.23;88.48
77662;BME280;69666;52.136;5.424;2024-01-25T05:44:37;102966.63;;;3.23;88.51
77662;BME280;69666;52.136;5.424;2024-01-25T05:47:06;102970.25;;;3.22;88.79
77662;BME280;69666;52.136;5.424;2024-01-25T05:49:36;102971.44;;;3.18;88.99
77662;BME280;69666;52.136;5.424;2024-01-25T05:52:05;102975.81;;;3.19;88.75
77662;BME280;69666;52.136;5.424;2024-01-25T05:54:35;102981.00;;;3.20;88.87
77662;BME280;69666;52.136;5.424;2024-01-25T05:57:05;102974.84;;;3.20;88.97
77662;BME280;69666;52.136;5.424;2024-01-25T05:59:34;102966.00;;;3.19;89.00
77662;BME280;69666;52.136;5.424;2024-01-25T06:02:04;102960.56;;;3.21;89.15
77662;BME280;69666;52.136;5.424;2024-01-25T06:04:36;102970.47;;;3.19;89.16
77662;BME280;69666;52.136;5.424;2024-01-25T06:07:07;102978.47;;;3.19;89.32
77662;BME280;69666;52.136;5.424;2024-01-25T06:09:36;102978.47;;;3.19;89.10
77662;BME280;69666;52.136;5.424;2024-01-25T06:12:06;102974.84;;;3.20;89.90
77662;BME280;69666;52.136;5.424;2024-01-25T06:14:35;102979.94;;;3.23;89.57
77662;BME280;69666;52.136;5.424;2024-01-25T06:17:05;102973.66;;;3.24;89.47
77662;BME280;69666;52.136;5.424;2024-01-25T06:19:34;102975.34;;;3.25;89.43
77662;BME280;69666;52.136;5.424;2024-01-25T06:22:04;102977.03;;;3.26;89.24
77662;BME280;69666;52.136;5.424;2024-01-25T06:24:34;102982.25;;;3.27;89.29
77662;BME280;69666;52.136;5.424;2024-01-25T06:27:04;102984.06;;;3.27;89.29
77662;BME280;69666;52.136;5.424;2024-01-25T06:29:33;102986.72;;;3.27;89.54
77662;BME280;69666;52.136;5.424;2024-01-25T06:32:03;102986.72;;;3.27;89.29
77662;BME280;69666;52.136;5.424;2024-01-25T06:34:40;102989.50;;;3.25;89.45
77662;BME280;69666;52.136;5.424;2024-01-25T06:37:10;102986.00;;;3.25;89.56
77662;BME280;69666;52.136;5.424;2024-01-25T06:39:44;102995.69;;;3.26;89.66
77662;BME280;69666;52.136;5.424;2024-01-25T06:42:13;102997.63;;;3.24;89.40
77662;BME280;69666;52.136;5.424;2024-01-25T06:44:44;102997.63;;;3.24;89.50
77662;BME280;69666;52.136;5.424;2024-01-25T06:47:13;103003.78;;;3.24;89.64
77662;BME280;69666;52.136;5.424;2024-01-25T06:49:43;103004.41;;;3.28;89.45
77662;BME280;69666;52.136;5.424;2024-01-25T06:52:17;102993.53;;;3.31;89.33
77662;BME280;69666;52.136;5.424;2024-01-25T06:54:47;102995.25;;;3.32;89.32
77662;BME280;69666;52.136;5.424;2024-01-25T06:57:17;102995.47;;;3.29;89.34
77662;BME280;69666;52.136;5.424;2024-01-25T06:59:46;103000.16;;;3.25;89.37
77662;BME280;69666;52.136;5.424;2024-01-25T07:02:16;102999.31;;;3.25;89.54
77662;BME280;69666;52.136;5.424;2024-01-25T07:04:46;103003.91;;;3.23;89.67
77662;BME280;69666;52.136;5.424;2024-01-25T07:07:17;103004.53;;;3.26;89.63
77662;BME280;69666;52.136;5.424;2024-01-25T07:09:46;103007.81;;;3.30;89.64
77662;BME280;69666;52.136;5.424;2024-01-25T07:12:16;103001.53;;;3.31;89.71
77662;BME280;69666;52.136;5.424;2024-01-25T07:14:45;102997.78;;;3.33;89.59
77662;BME280;69666;52.136;5.424;2024-01-25T07:17:15;102993.44;;;3.32;89.56
77662;BME280;69666;52.136;5.424;2024-01-25T07:19:44;102995.25;;;3.32;89.33
77662;BME280;69666;52.136;5.424;2024-01-25T07:22:14;103000.78;;;3.29;89.38
77662;BME280;69666;52.136;5.424;2024-01-25T07:24:46;103009.75;;;3.28;89.39
77662;BME280;69666;52.136;5.424;2024-01-25T07:27:17;103008.06;;;3.27;89.76
77662;BME280;69666;52.136;5.424;2024-01-25T07:29:46;103016.56;;;3.32;89.82
77662;BME280;69666;52.136;5.424;2024-01-25T07:32:15;103012.94;;;3.33;89.52
77662;BME280;69666;52.136;5.424;2024-01-25T07:34:46;103004.94;;;3.33;89.59
77662;BME280;69666;52.136;5.424;2024-01-25T07:37:17;102991.38;;;3.36;89.87
77662;BME280;69666;52.136;5.424;2024-01-25T07:39:49;102993.19;;;3.36;89.80
77662;BME280;69666;52.136;5.424;2024-01-25T07:42:19;102991.38;;;3.36;89.62
77662;BME280;69666;52.136;5.424;2024-01-25T07:44:48;102995.75;;;3.37;89.90
77662;BME280;69666;52.136;5.424;2024-01-25T07:47:18;102997.34;;;3.40;89.70
77662;BME280;69666;52.136;5.424;2024-01-25T07:49:48;102998.19;;;3.40;89.62
77662;BME280;69666;52.136;5.424;2024-01-25T07:52:19;102996.75;;;3.47;89.87
77662;BME280;69666;52.136;5.424;2024-01-25T07:54:51;102990.22;;;3.51;89.75
77662;BME280;69666;52.136;5.424;2024-01-25T07:57:25;102988.31;;;3.53;89.94
77662;BME280;69666;52.136;5.424;2024-01-25T07:59:55;102996.78;;;3.58;89.77
77662;BME280;69666;52.136;5.424;2024-01-25T08:02:24;102993.63;;;3.64;89.61
77662;BME280;69666;52.136;5.424;2024-01-25T08:04:54;102995.09;;;3.69;89.71
77662;BME280;69666;52.136;5.424;2024-01-25T08:07:26;102988.81;;;3.70;89.56
77662;BME280;69666;52.136;5.424;2024-01-25T08:09:57;102996.69;;;3.71;89.74
77662;BME280;69666;52.136;5.424;2024-01-25T08:12:26;103002.75;;;3.73;89.54
77662;BME280;69666;52.136;5.424;2024-01-25T08:14:56;103011.59;;;3.74;89.79
77662;BME280;69666;52.136;5.424;2024-01-25T08:17:26;103010.28;;;3.79;89.65
77662;BME280;69666;52.136;5.424;2024-01-25T08:19:56;103010.03;;;3.82;89.81
77662;BME280;69666;52.136;5.424;2024-01-25T08:22:26;103022.66;;;3.80;89.99
77662;BME280;69666;52.136;5.424;2024-01-25T08:24:56;103025.47;;;3.90;90.13
77662;BME280;69666;52.136;5.424;2024-01-25T08:27:26;103032.13;;;3.95;90.24
77662;BME280;69666;52.136;5.424;2024-01-25T08:29:56;103025.50;;;4.01;90.08
77662;BME280;69666;52.136;5.424;2024-01-25T08:32:36;103017.25;;;4.04;89.98
77662;BME280;69666;52.136;5.424;2024-01-25T08:35:06;103020.41;;;4.09;89.92
77662;BME280;69666;52.136;5.424;2024-01-25T08:37:36;103011.31;;;4.12;90.21
77662;BME280;69666;52.136;5.424;2024-01-25T08:40:06;103018.69;;;4.19;90.10
77662;BME280;69666;52.136;5.424;2024-01-25T08:42:38;103009.25;;;4.26;90.28
77662;BME280;69666;52.136;5.424;2024-01-25T08:45:08;103017.63;;;4.33;90.30
77662;BME280;69666;52.136;5.424;2024-01-25T08:47:41;103019.81;;;4.39;90.17
77662;BME280;69666;52.136;5.424;2024-01-25T08:50:11;103012.16;;;4.46;90.47
77662;BME280;69666;52.136;5.424;2024-01-25T08:52:41;103024.78;;;4.55;90.50
77662;BME280;69666;52.136;5.424;2024-01-25T08:55:11;103034.72;;;4.64;90.59
77662;BME280;69666;52.136;5.424;2024-01-25T08:57:40;103028.75;;;4.72;90.33
77662;BME280;69666;52.136;5.424;2024-01-25T09:00:11;103029.84;;;4.80;90.39
77662;BME280;69666;52.136;5.424;2024-01-25T09:02:41;103018.66;;;4.86;90.45
77662;BME280;69666;52.136;5.424;2024-01-25T09:05:10;103014.41;;;4.95;90.47
77662;BME280;69666;52.136;5.424;2024-01-25T09:07:45;103014.63;;;5.03;90.59
77662;BME280;69666;52.136;5.424;2024-01-25T09:10:16;103020.91;;;5.13;90.67
77662;BME280;69666;52.136;5.424;2024-01-25T09:12:46;103021.94;;;5.22;90.76
77662;BME280;69666;52.136;5.424;2024-01-25T09:15:16;103021.19;;;5.31;90.93
77662;BME280;69666;52.136;5.424;2024-01-25T09:17:50;103033.78;;;5.40;91.02
77662;BME280;69666;52.136;5.424;2024-01-25T09:20:20;103036.94;;;5.45;91.00
77662;BME280;69666;52.136;5.424;2024-01-25T09:22:50;103037.28;;;5.52;91.06
77662;BME280;69666;52.136;5.424;2024-01-25T09:25:23;103044.66;;;5.59;91.47
77662;BME280;69666;52.136;5.424;2024-01-25T09:27:53;103037.56;;;5.70;91.20
77662;BME280;69666;52.136;5.424;2024-01-25T09:30:25;103030.69;;;5.77;91.44
77662;BME280;69666;52.136;5.424;2024-01-25T09:32:55;103028.94;;;5.87;91.15
77662;BME280;69666;52.136;5.424;2024-01-25T09:35:24;103021.84;;;5.97;91.29
77662;BME280;69666;52.136;5.424;2024-01-25T09:37:54;103014.88;;;6.06;91.37
77662;BME280;69666;52.136;5.424;2024-01-25T09:40:27;103010.69;;;6.13;90.96
77662;BME280;69666;52.136;5.424;2024-01-25T09:43:08;103011.00;;;6.19;91.11
77662;BME280;69666;52.136;5.424;2024-01-25T09:45:37;103018.06;;;6.20;91.37
77662;BME280;69666;52.136;5.424;2024-01-25T09:48:08;103031.31;;;6.31;91.25
77662;BME280;69666;52.136;5.424;2024-01-25T09:50:42;103026.28;;;6.38;91.41
77662;BME280;69666;52.136;5.424;2024-01-25T09:53:23;103034.50;;;6.46;91.44
77662;BME280;69666;52.136;5.424;2024-01-25T09:56:13;103035.25;;;6.58;91.62
77662;BME280;69666;52.136;5.424;2024-01-25T09:58:44;103026.16;;;6.70;91.95
77662;BME280;69666;52.136;5.424;2024-01-25T10:01:15;103010.06;;;6.80;92.03
77662;BME280;69666;52.136;5.424;2024-01-25T10:03:46;102998.84;;;6.95;92.33
77662;BME280;69666;52.136;5.424;2024-01-25T10:06:17;102984.88;;;7.11;92.06
77662;BME280;69666;52.136;5.424;2024-01-25T10:08:47;102994.06;;;7.28;91.64
77662;BME280;69666;52.136;5.424;2024-01-25T10:11:16;102992.94;;;7.40;91.16
77662;BME280;69666;52.136;5.424;2024-01-25T10:13:47;102999.84;;;7.43;90.97
77662;BME280;69666;52.136;5.424;2024-01-25T10:16:19;103006.19;;;7.51;90.81
77662;BME280;69666;52.136;5.424;2024-01-25T10:18:49;103014.38;;;7.59;90.79
77662;BME280;69666;52.136;5.424;2024-01-25T10:21:22;103011.97;;;7.66;90.70
77662;BME280;69666;52.136;5.424;2024-01-25T10:23:52;103005.63;;;7.77;90.73
77662;BME280;69666;52.136;5.424;2024-01-25T10:26:25;103004.56;;;7.87;90.70
77662;BME280;69666;52.136;5.424;2024-01-25T10:28:57;103014.59;;;7.95;90.68
77662;BME280;69666;52.136;5.424;2024-01-25T10:31:32;103012.75;;;8.05;90.20
77662;BME280;69666;52.136;5.424;2024-01-25T10:34:13;103001.28;;;8.13;90.09
77662;BME280;69666;52.136;5.424;2024-01-25T10:36:44;102991.66;;;8.20;90.16
77662;BME280;69666;52.136;5.424;2024-01-25T10:39:16;102989.38;;;8.25;90.04
77662;BME280;69666;52.136;5.424;2024-01-25T10:41:47;102990.31;;;8.34;90.09
77662;BME280;69666;52.136;5.424;2024-01-25T10:44:20;102991.03;;;8.36;89.88
77662;BME280;69666;52.136;5.424;2024-01-25T10:46:50;102993.41;;;8.39;89.50
77662;BME280;69666;52.136;5.424;2024-01-25T10:49:20;102996.09;;;8.39;89.39
77662;BME280;69666;52.136;5.424;2024-01-25T10:51:52;102994.72;;;8.35;89.34
77662;BME280;69666;52.136;5.424;2024-01-25T10:54:22;102988.19;;;8.37;89.57
77662;BME280;69666;52.136;5.424;2024-01-25T10:56:52;102990.00;;;8.46;89.57
77662;BME280;69666;52.136;5.424;2024-01-25T10:59:22;102985.88;;;8.52;89.67
77662;BME280;69666;52.136;5.424;2024-01-25T11:01:54;102977.91;;;8.60;89.61
77662;BME280;69666;52.136;5.424;2024-01-25T11:04:24;102978.31;;;8.65;89.72
77662;BME280;69666;52.136;5.424;2024-01-25T11:06:54;102978.16;;;8.67;89.79
77662;BME280;69666;52.136;5.424;2024-01-25T11:09:55;102956.81;;;8.65;89.09
77662;BME280;69666;52.136;5.424;2024-01-25T11:12:25;102937.69;;;8.68;89.41
77662;BME280;69666;52.136;5.424;2024-01-25T11:14:55;102931.88;;;8.73;89.07
77662;BME280;69666;52.136;5.424;2024-01-25T11:17:25;102943.16;;;8.76;89.43
77662;BME280;69666;52.136;5.424;2024-01-25T11:20:00;102939.19;;;8.80;89.32
77662;BME280;69666;52.136;5.424;2024-01-25T11:22:36;102943.38;;;8.65;90.26
77662;BME280;69666;52.136;5.424;2024-01-25T11:25:19;102943.56;;;8.81;89.24
77662;BME280;69666;52.136;5.424;2024-01-25T11:27:49;102940.78;;;8.73;89.34
77662;BME280;69666;52.136;5.424;2024-01-25T11:30:20;102941.88;;;8.80;88.68
77662;BME280;69666;52.136;5.424;2024-01-25T11:32:49;102947.53;;;8.77;89.08
77662;BME280;69666;52.136;5.424;2024-01-25T11:35:28;102928.03;;;8.75;89.57
77662;BME280;69666;52.136;5.424;2024-01-25T11:37:58;102915.00;;;8.80;88.99
77662;BME280;69666;52.136;5.424;2024-01-25T11:40:28;102903.09;;;8.83;88.65
77662;BME280;69666;52.136;5.424;2024-01-25T11:43:08;102915.13;;;8.61;89.93
77662;BME280;69666;52.136;5.424;2024-01-25T11:45:41;102907.34;;;8.58;90.02
77662;BME280;69666;52.136;5.424;2024-01-25T11:48:12;102906.34;;;8.59;90.18
77662;BME280;69666;52.136;5.424;2024-01-25T11:50:41;102894.75;;;8.58;90.54
77662;BME280;69666;52.136;5.424;2024-01-25T11:53:11;102897.69;;;8.65;90.87
77662;BME280;69666;52.136;5.424;2024-01-25T11:55:42;102895.41;;;8.70;90.74
77662;BME280;69666;52.136;5.424;2024-01-25T11:58:11;102884.09;;;8.67;90.70
77662;BME280;69666;52.136;5.424;2024-01-25T12:00:42;102883.09;;;8.68;90.19
77662;BME280;69666;52.136;5.424;2024-01-25T12:03:12;102879.19;;;8.62;90.55
77662;BME280;69666;52.136;5.424;2024-01-25T12:05:41;102880.56;;;8.66;90.56
77662;BME280;69666;52.136;5.424;2024-01-25T12:08:14;102886.34;;;8.71;90.20
77662;BME280;69666;52.136;5.424;2024-01-25T12:11:09;102878.03;;;8.65;89.32
77662;BME280;69666;52.136;5.424;2024-01-25T12:13:43;102879.41;;;8.69;89.37
77662;BME280;69666;52.136;5.424;2024-01-25T12:16:14;102871.50;;;8.67;89.76
77662;BME280;69666;52.136;5.424;2024-01-25T12:18:44;102867.13;;;8.66;89.63
77662;BME280;69666;52.136;5.424;2024-01-25T12:21:14;102862.75;;;8.65;89.60
77662;BME280;69666;52.136;5.424;2024-01-25T12:23:44;102858.91;;;8.68;89.79
77662;BME280;69666;52.136;5.424;2024-01-25T12:26:13;102861.47;;;8.69;89.96
77662;BME280;69666;52.136;5.424;2024-01-25T12:28:46;102863.00;;;8.72;89.98
77662;BME280;69666;52.136;5.424;2024-01-25T12:31:18;102854.47;;;8.76;90.21
77662;BME280;69666;52.136;5.424;2024-01-25T12:33:47;102848.78;;;8.79;89.79
77662;BME280;69666;52.136;5.424;2024-01-25T12:36:17;102854.72;;;8.83;89.94
77662;BME280;69666;52.136;5.424;2024-01-25T12:38:50;102852.00;;;8.83;90.13
77662;BME280;69666;52.136;5.424;2024-01-25T12:41:21;102849.31;;;8.83;90.22
77662;BME280;69666;52.136;5.424;2024-01-25T12:43:51;102846.78;;;8.81;90.52
77662;BME280;69666;52.136;5.424;2024-01-25T12:46:21;102840.47;;;8.90;90.37
77662;BME280;69666;52.136;5.424;2024-01-25T12:48:55;102839.31;;;8.93;90.12
77662;BME280;69666;52.136;5.424;2024-01-25T12:51:27;102838.16;;;8.95;90.08
77662;BME280;69666;52.136;5.424;2024-01-25T12:53:57;102833.84;;;9.03;90.22
77662;BME280;69666;52.136;5.424;2024-01-25T12:56:27;102833.00;;;9.02;88.37
77662;BME280;69666;52.136;5.424;2024-01-25T12:59:01;102817.72;;;9.03;89.68
77662;BME280;69666;52.136;5.424;2024-01-25T13:01:33;102812.50;;;9.01;89.60
77662;BME280;69666;52.136;5.424;2024-01-25T13:04:04;102809.72;;;9.11;89.86
77662;BME280;69666;52.136;5.424;2024-01-25T13:06:34;102808.41;;;9.15;89.92
77662;BME280;69666;52.136;5.424;2024-01-25T13:09:18;102793.78;;;9.17;89.21
77662;BME280;69666;52.136;5.424;2024-01-25T13:12:01;102796.31;;;9.19;89.75
77662;BME280;69666;52.136;5.424;2024-01-25T13:14:31;102794.63;;;9.18;88.87
77662;BME280;69666;52.136;5.424;2024-01-25T13:17:02;102789.25;;;9.18;88.51
77662;BME280;69666;52.136;5.424;2024-01-25T13:19:33;102794.63;;;9.18;89.43